sensor_id;sensor_type;location;lat;lon;timestamp;temperature;humidity
37432;DHT22;23292;51.300;6.252;2023-02-15T00:02:25;2.60;99.90
37432;DHT22;23292;51.300;6.252;2023-02-15T00:04:52;2.60;99.90
37432;DHT22;23292;51.300;6.252;2023-02-15T00:07:20;2.50;99.90
37432;DHT22;23292;51.300;6.252;2023-02-15T00:09:47;2.50;99.90
37432;DHT22;23292;51.300;6.252;2023-02-15T00:12:14;2.40;99.90
37432;DHT22;23292;51.300;6.252;2023-02-15T00:14:41;2.30;99.90
37432;DHT22;23292;51.300;6.252;2023-02-15T00:17:08;2.30;99.90
37432;DHT22;23292;51.300;6.252;2023-02-15T00:19:35;2.20;99.90
37432;DHT22;23292;51.300;6.252;2023-02-15T00:22:02;2.20;99.90
37432;DHT22;23292;51.300;6.252;2023-02-15T00:24:28;2.10;99.90
37432;DHT22;23292;51.300;6.252;2023-02-15T00:26:55;2.10;99.90
37432;DHT22;23292;51.300;6.252;2023-02-15T00:29:22;2.10;99.90
37432;DHT22;23292;51.300;6.252;2023-02-15T00:31:48;2.10;99.90
37432;DHT22;23292;51.300;6.252;2023-02-15T00:34:21;2.10;99.90
37432;DHT22;23292;51.300;6.252;2023-02-15T00:36:48;2.10;99.90
37432;DHT22;23292;51.300;6.252;2023-02-15T00:39:16;2.10;99.90
37432;DHT22;23292;51.300;6.252;2023-02-15T00:41:44;2.10;99.90
37432;DHT22;23292;51.300;6.252;2023-02-15T00:44:11;2.00;99.90
37432;DHT22;23292;51.300;6.252;2023-02-15T00:46:38;2.00;99.90
37432;DHT22;23292;51.300;6.252;2023-02-15T00:49:08;2.00;99.90
37432;DHT22;23292;51.300;6.252;2023-02-15T00:51:35;2.00;99.90
37432;DHT22;23292;51.300;6.252;2023-02-15T00:54:02;1.90;99.90
37432;DHT22;23292;51.300;6.252;2023-02-15T00:56:29;1.90;99.90
37432;DHT22;23292;51.300;6.252;2023-02-15T00:58:55;1.80;99.90
37432;DHT22;23292;51.300;6.252;2023-02-15T01:01:23;1.80;99.90
37432;DHT22;23292;51.300;6.252;2023-02-15T01:03:50;1.80;99.90
37432;DHT22;23292;51.300;6.252;2023-02-15T01:06:17;1.70;99.90
37432;DHT22;23292;51.300;6.252;2023-02-15T01:08:45;1.70;99.90
37432;DHT22;23292;51.300;6.252;2023-02-15T01:11:18;1.70;99.90
37432;DHT22;23292;51.300;6.252;2023-02-15T01:13:51;1.60;99.90
37432;DHT22;23292;51.300;6.252;2023-02-15T01:16:18;1.60;99.90
37432;DHT22;23292;51.300;6.252;2023-02-15T01:18:45;1.60;99.90
37432;DHT22;23292;51.300;6.252;2023-02-15T01:21:17;1.60;99.90
37432;DHT22;23292;51.300;6.252;2023-02-15T01:23:44;1.70;99.90
37432;DHT22;23292;51.300;6.252;2023-02-15T01:26:12;1.70;99.90
37432;DHT22;23292;51.300;6.252;2023-02-15T01:28:39;1.70;99.90
37432;DHT22;23292;51.300;6.252;2023-02-15T01:31:10;1.60;99.90
37432;DHT22;23292;51.300;6.252;2023-02-15T01:33:38;1.70;99.90
37432;DHT22;23292;51.300;6.252;2023-02-15T01:36:05;1.70;99.90
37432;DHT22;23292;51.300;6.252;2023-02-15T01:38:33;1.70;99.90
37432;DHT22;23292;51.300;6.252;2023-02-15T01:41:00;1.70;99.90
37432;DHT22;23292;51.300;6.252;2023-02-15T01:43:58;1.60;99.90
37432;DHT22;23292;51.300;6.252;2023-02-15T01:46:37;1.60;99.90
37432;DHT22;23292;51.300;6.252;2023-02-15T01:49:15;1.50;99.90
37432;DHT22;23292;51.300;6.252;2023-02-15T01:51:46;1.50;99.90
37432;DHT22;23292;51.300;6.252;2023-02-15T01:54:27;1.50;99.90
37432;DHT22;23292;51.300;6.252;2023-02-15T01:57:00;1.50;99.90
37432;DHT22;23292;51.300;6.252;2023-02-15T01:59:32;1.50;99.90
37432;DHT22;23292;51.300;6.252;2023-02-15T02:02:01;1.50;99.90
37432;DHT22;23292;51.300;6.252;2023-02-15T02:04:38;1.50;99.90
37432;DHT22;23292;51.300;6.252;2023-02-15T02:07:07;1.50;99.90
37432;DHT22;23292;51.300;6.252;2023-02-15T02:09:36;1.50;99.90
37432;DHT22;23292;51.300;6.252;2023-02-15T02:12:04;1.60;99.90
37432;DHT22;23292;51.300;6.252;2023-02-15T02:14:31;1.50;99.90
37432;DHT22;23292;51.300;6.252;2023-02-15T02:28:25;1.40;99.90
37432;DHT22;23292;51.300;6.252;2023-02-15T02:41:51;1.40;99.90
37432;DHT22;23292;51.300;6.252;2023-02-15T02:44:47;1.40;99.90
37432;DHT22;23292;51.300;6.252;2023-02-15T02:47:37;1.40;99.90
37432;DHT22;23292;51.300;6.252;2023-02-15T02:50:08;1.40;99.90
37432;DHT22;23292;51.300;6.252;2023-02-15T02:52:46;1.30;99.90
37432;DHT22;23292;51.300;6.252;2023-02-15T02:55:27;1.30;99.90
37432;DHT22;23292;51.300;6.252;2023-02-15T02:58:16;1.20;99.90
37432;DHT22;23292;51.300;6.252;2023-02-15T03:03:39;1.10;99.90
37432;DHT22;23292;51.300;6.252;2023-02-15T03:06:18;1.00;99.90
37432;DHT22;23292;51.300;6.252;2023-02-15T03:08:50;1.00;99.90
37432;DHT22;23292;51.300;6.252;2023-02-15T03:11:17;0.90;99.90
37432;DHT22;23292;51.300;6.252;2023-02-15T03:13:46;0.90;99.90
37432;DHT22;23292;51.300;6.252;2023-02-15T03:16:15;0.90;99.90
37432;DHT22;23292;51.300;6.252;2023-02-15T03:19:09;0.90;99.90
37432;DHT22;23292;51.300;6.252;2023-02-15T03:21:49;0.90;99.90
37432;DHT22;23292;51.300;6.252;2023-02-15T03:24:28;0.80;99.90
37432;DHT22;23292;51.300;6.252;2023-02-15T03:26:59;0.80;99.90
37432;DHT22;23292;51.300;6.252;2023-02-15T03:29:27;0.80;99.90
37432;DHT22;23292;51.300;6.252;2023-02-15T03:31:58;0.80;99.90
37432;DHT22;23292;51.300;6.252;2023-02-15T03:34:26;0.80;99.90
37432;DHT22;23292;51.300;6.252;2023-02-15T03:40:23;0.80;99.90
37432;DHT22;23292;51.300;6.252;2023-02-15T03:43:25;0.80;99.90
37432;DHT22;23292;51.300;6.252;2023-02-15T03:45:57;0.80;99.90
37432;DHT22;23292;51.300;6.252;2023-02-15T03:48:31;0.70;99.90
37432;DHT22;23292;51.300;6.252;2023-02-15T03:51:06;0.80;99.90
37432;DHT22;23292;51.300;6.252;2023-02-15T03:53:53;0.70;99.90
37432;DHT22;23292;51.300;6.252;2023-02-15T03:56:20;0.80;99.90
37432;DHT22;23292;51.300;6.252;2023-02-15T03:58:47;0.90;99.90
37432;DHT22;23292;51.300;6.252;2023-02-15T04:04:34;0.80;99.90
37432;DHT22;23292;51.300;6.252;2023-02-15T04:07:03;0.80;99.90
37432;DHT22;23292;51.300;6.252;2023-02-15T04:09:30;0.80;99.90
37432;DHT22;23292;51.300;6.252;2023-02-15T04:12:15;0.90;99.90
37432;DHT22;23292;51.300;6.252;2023-02-15T04:14:42;0.90;99.90
37432;DHT22;23292;51.300;6.252;2023-02-15T04:17:27;0.90;99.90
37432;DHT22;23292;51.300;6.252;2023-02-15T04:19:54;1.00;99.90
37432;DHT22;23292;51.300;6.252;2023-02-15T04:22:39;0.90;99.90
37432;DHT22;23292;51.300;6.252;2023-02-15T04:25:25;0.90;99.90
37432;DHT22;23292;51.300;6.252;2023-02-15T04:27:53;0.90;99.90
37432;DHT22;23292;51.300;6.252;2023-02-15T04:30:22;0.80;99.90
37432;DHT22;23292;51.300;6.252;2023-02-15T04:32:50;0.70;99.90
37432;DHT22;23292;51.300;6.252;2023-02-15T04:35:17;0.70;99.90
37432;DHT22;23292;51.300;6.252;2023-02-15T04:37:44;0.70;99.90
37432;DHT22;23292;51.300;6.252;2023-02-15T04:40:13;0.70;99.90
37432;DHT22;23292;51.300;6.252;2023-02-15T04:42:39;0.60;99.90
37432;DHT22;23292;51.300;6.252;2023-02-15T04:45:07;0.70;99.90
37432;DHT22;23292;51.300;6.252;2023-02-15T04:47:34;0.80;99.90
37432;DHT22;23292;51.300;6.252;2023-02-15T04:50:01;0.80;99.90
37432;DHT22;23292;51.300;6.252;2023-02-15T04:52:27;0.80;99.90
37432;DHT22;23292;51.300;6.252;2023-02-15T04:54:54;0.80;99.90
37432;DHT22;23292;51.300;6.252;2023-02-15T04:57:21;0.70;99.90
37432;DHT22;23292;51.300;6.252;2023-02-15T04:59:47;0.70;99.90
37432;DHT22;23292;51.300;6.252;2023-02-15T05:02:14;0.70;99.90
37432;DHT22;23292;51.300;6.252;2023-02-15T05:04:41;0.70;99.90
37432;DHT22;23292;51.300;6.252;2023-02-15T05:07:07;0.70;99.90
37432;DHT22;23292;51.300;6.252;2023-02-15T05:09:34;0.70;99.90
37432;DHT22;23292;51.300;6.252;2023-02-15T05:12:01;0.70;99.90
37432;DHT22;23292;51.300;6.252;2023-02-15T05:14:27;0.60;99.90
37432;DHT22;23292;51.300;6.252;2023-02-15T05:16:54;0.50;99.90
37432;DHT22;23292;51.300;6.252;2023-02-15T05:19:21;0.50;99.90
37432;DHT22;23292;51.300;6.252;2023-02-15T05:21:50;0.60;99.90
37432;DHT22;23292;51.300;6.252;2023-02-15T05:24:17;0.60;99.90
37432;DHT22;23292;51.300;6.252;2023-02-15T05:27:02;0.60;99.90
37432;DHT22;23292;51.300;6.252;2023-02-15T05:29:48;0.60;99.90
37432;DHT22;23292;51.300;6.252;2023-02-15T05:32:15;0.60;99.90
37432;DHT22;23292;51.300;6.252;2023-02-15T05:34:42;0.60;99.90
37432;DHT22;23292;51.300;6.252;2023-02-15T05:37:08;0.60;99.90
37432;DHT22;23292;51.300;6.252;2023-02-15T05:39:35;0.50;99.90
37432;DHT22;23292;51.300;6.252;2023-02-15T05:42:02;0.60;99.90
37432;DHT22;23292;51.300;6.252;2023-02-15T05:44:29;0.50;99.90
37432;DHT22;23292;51.300;6.252;2023-02-15T05:46:56;0.50;99.90
37432;DHT22;23292;51.300;6.252;2023-02-15T05:49:22;0.60;99.90
37432;DHT22;23292;51.300;6.252;2023-02-15T05:51:49;0.50;99.90
37432;DHT22;23292;51.300;6.252;2023-02-15T05:54:16;0.50;99.90
37432;DHT22;23292;51.300;6.252;2023-02-15T05:56:43;0.50;99.90
37432;DHT22;23292;51.300;6.252;2023-02-15T05:59:10;0.40;99.90
37432;DHT22;23292;51.300;6.252;2023-02-15T06:01:37;0.40;99.90
37432;DHT22;23292;51.300;6.252;2023-02-15T06:04:04;0.40;99.90
37432;DHT22;23292;51.300;6.252;2023-02-15T06:06:30;0.30;99.90
37432;DHT22;23292;51.300;6.252;2023-02-15T06:08:57;0.30;99.90
37432;DHT22;23292;51.300;6.252;2023-02-15T06:11:23;0.20;99.90
37432;DHT22;23292;51.300;6.252;2023-02-15T06:13:50;0.20;99.90
37432;DHT22;23292;51.300;6.252;2023-02-15T06:16:17;0.20;99.90
37432;DHT22;23292;51.300;6.252;2023-02-15T06:18:44;0.20;99.90
37432;DHT22;23292;51.300;6.252;2023-02-15T06:21:11;0.20;99.90
37432;DHT22;23292;51.300;6.252;2023-02-15T06:23:37;0.20;99.90
37432;DHT22;23292;51.300;6.252;2023-02-15T06:26:04;0.30;99.90
37432;DHT22;23292;51.300;6.252;2023-02-15T06:28:31;0.30;99.90
37432;DHT22;23292;51.300;6.252;2023-02-15T06:30:57;0.30;99.90
37432;DHT22;23292;51.300;6.252;2023-02-15T06:33:24;0.40;99.90
37432;DHT22;23292;51.300;6.252;2023-02-15T06:35:51;0.40;99.90
37432;DHT22;23292;51.300;6.252;2023-02-15T06:38:18;0.50;99.90
37432;DHT22;23292;51.300;6.252;2023-02-15T06:40:44;0.50;99.90
37432;DHT22;23292;51.300;6.252;2023-02-15T06:43:11;0.60;99.90
37432;DHT22;23292;51.300;6.252;2023-02-15T06:45:37;0.60;99.90
37432;DHT22;23292;51.300;6.252;2023-02-15T06:48:04;0.70;99.90
37432;DHT22;23292;51.300;6.252;2023-02-15T06:50:33;0.70;99.90
37432;DHT22;23292;51.300;6.252;2023-02-15T06:53:00;0.60;99.90
37432;DHT22;23292;51.300;6.252;2023-02-15T06:55:26;0.60;99.90
37432;DHT22;23292;51.300;6.252;2023-02-15T06:57:53;0.60;99.90
37432;DHT22;23292;51.300;6.252;2023-02-15T07:00:20;0.50;99.90
37432;DHT22;23292;51.300;6.252;2023-02-15T07:02:56;0.50;99.90
37432;DHT22;23292;51.300;6.252;2023-02-15T07:05:25;0.50;99.90
37432;DHT22;23292;51.300;6.252;2023-02-15T07:07:57;0.50;99.90
37432;DHT22;23292;51.300;6.252;2023-02-15T07:10:24;0.50;99.90
37432;DHT22;23292;51.300;6.252;2023-02-15T07:12:51;0.60;99.90
37432;DHT22;23292;51.300;6.252;2023-02-15T07:15:19;0.70;99.90
37432;DHT22;23292;51.300;6.252;2023-02-15T07:17:47;0.70;99.90
37432;DHT22;23292;51.300;6.252;2023-02-15T07:20:18;0.70;99.90
37432;DHT22;23292;51.300;6.252;2023-02-15T07:22:46;0.70;99.90
37432;DHT22;23292;51.300;6.252;2023-02-15T07:25:13;0.70;99.90
37432;DHT22;23292;51.300;6.252;2023-02-15T07:27:40;0.80;99.90
37432;DHT22;23292;51.300;6.252;2023-02-15T07:30:09;0.90;99.90
37432;DHT22;23292;51.300;6.252;2023-02-15T07:32:36;0.80;99.90
37432;DHT22;23292;51.300;6.252;2023-02-15T07:35:23;0.90;99.90
37432;DHT22;23292;51.300;6.252;2023-02-15T07:37:50;0.90;99.90
37432;DHT22;23292;51.300;6.252;2023-02-15T07:40:17;1.00;99.90
37432;DHT22;23292;51.300;6.252;2023-02-15T07:42:43;1.20;99.90
37432;DHT22;23292;51.300;6.252;2023-02-15T07:45:10;1.20;99.90
37432;DHT22;23292;51.300;6.252;2023-02-15T07:47:37;1.30;99.90
37432;DHT22;23292;51.300;6.252;2023-02-15T07:50:04;1.30;99.90
37432;DHT22;23292;51.300;6.252;2023-02-15T07:52:31;1.40;99.90
37432;DHT22;23292;51.300;6.252;2023-02-15T07:54:57;1.40;99.90
37432;DHT22;23292;51.300;6.252;2023-02-15T07:57:24;1.50;99.90
37432;DHT22;23292;51.300;6.252;2023-02-15T07:59:50;1.60;99.90
37432;DHT22;23292;51.300;6.252;2023-02-15T08:02:17;1.50;99.90
37432;DHT22;23292;51.300;6.252;2023-02-15T08:04:44;1.70;99.90
37432;DHT22;23292;51.300;6.252;2023-02-15T08:07:10;1.80;99.90
37432;DHT22;23292;51.300;6.252;2023-02-15T08:09:37;1.90;99.90
37432;DHT22;23292;51.300;6.252;2023-02-15T08:12:04;2.00;99.90
37432;DHT22;23292;51.300;6.252;2023-02-15T08:14:31;2.00;99.90
37432;DHT22;23292;51.300;6.252;2023-02-15T08:16:59;2.10;99.90
37432;DHT22;23292;51.300;6.252;2023-02-15T08:19:30;2.20;99.90
37432;DHT22;23292;51.300;6.252;2023-02-15T08:22:03;2.30;99.90
37432;DHT22;23292;51.300;6.252;2023-02-15T08:24:33;2.40;99.90
37432;DHT22;23292;51.300;6.252;2023-02-15T08:27:00;2.50;99.90
37432;DHT22;23292;51.300;6.252;2023-02-15T08:29:32;2.60;99.90
37432;DHT22;23292;51.300;6.252;2023-02-15T08:32:06;2.70;99.90
37432;DHT22;23292;51.300;6.252;2023-02-15T08:34:36;2.70;99.90
37432;DHT22;23292;51.300;6.252;2023-02-15T08:37:03;2.80;99.90
37432;DHT22;23292;51.300;6.252;2023-02-15T08:39:29;3.00;99.90
37432;DHT22;23292;51.300;6.252;2023-02-15T08:41:56;3.00;99.90
37432;DHT22;23292;51.300;6.252;2023-02-15T08:44:23;3.10;99.90
37432;DHT22;23292;51.300;6.252;2023-02-15T08:46:50;3.30;99.90
37432;DHT22;23292;51.300;6.252;2023-02-15T08:49:18;3.30;99.90
37432;DHT22;23292;51.300;6.252;2023-02-15T08:51:46;3.40;99.90
37432;DHT22;23292;51.300;6.252;2023-02-15T08:54:15;3.50;99.90
37432;DHT22;23292;51.300;6.252;2023-02-15T08:56:43;3.60;99.90
37432;DHT22;23292;51.300;6.252;2023-02-15T08:59:18;3.80;99.90
37432;DHT22;23292;51.300;6.252;2023-02-15T09:01:46;3.80;99.90
37432;DHT22;23292;51.300;6.252;2023-02-15T09:04:13;4.00;99.90
37432;DHT22;23292;51.300;6.252;2023-02-15T09:06:44;4.10;99.90
37432;DHT22;23292;51.300;6.252;2023-02-15T09:09:15;4.20;99.90
37432;DHT22;23292;51.300;6.252;2023-02-15T09:11:43;4.30;99.90
37432;DHT22;23292;51.300;6.252;2023-02-15T09:14:12;4.50;99.90
37432;DHT22;23292;51.300;6.252;2023-02-15T09:16:41;4.60;99.90
37432;DHT22;23292;51.300;6.252;2023-02-15T09:19:08;4.70;99.90
37432;DHT22;23292;51.300;6.252;2023-02-15T09:21:36;4.90;99.90
37432;DHT22;23292;51.300;6.252;2023-02-15T09:24:08;4.90;99.90
37432;DHT22;23292;51.300;6.252;2023-02-15T09:26:37;5.10;99.90
37432;DHT22;23292;51.300;6.252;2023-02-15T09:29:04;5.20;99.90
37432;DHT22;23292;51.300;6.252;2023-02-15T09:31:36;5.40;99.90
37432;DHT22;23292;51.300;6.252;2023-02-15T09:34:03;5.50;99.90
37432;DHT22;23292;51.300;6.252;2023-02-15T09:36:32;5.70;99.90
37432;DHT22;23292;51.300;6.252;2023-02-15T09:39:09;5.70;99.90
37432;DHT22;23292;51.300;6.252;2023-02-15T09:50:02;6.30;99.90
37432;DHT22;23292;51.300;6.252;2023-02-15T09:52:57;6.40;99.90
37432;DHT22;23292;51.300;6.252;2023-02-15T10:01:26;6.80;99.90
37432;DHT22;23292;51.300;6.252;2023-02-15T10:06:53;6.90;99.90
37432;DHT22;23292;51.300;6.252;2023-02-15T10:10:01;7.10;99.90
37432;DHT22;23292;51.300;6.252;2023-02-15T10:12:53;7.20;99.90
37432;DHT22;23292;51.300;6.252;2023-02-15T10:15:50;7.30;99.90
37432;DHT22;23292;51.300;6.252;2023-02-15T10:18:44;7.40;99.90
37432;DHT22;23292;51.300;6.252;2023-02-15T10:21:59;7.50;99.90
37432;DHT22;23292;51.300;6.252;2023-02-15T10:24:47;7.50;99.90
37432;DHT22;23292;51.300;6.252;2023-02-15T10:27:20;7.50;99.90
37432;DHT22;23292;51.300;6.252;2023-02-15T10:33:01;7.90;99.90
37432;DHT22;23292;51.300;6.252;2023-02-15T10:35:47;8.00;99.90
37432;DHT22;23292;51.300;6.252;2023-02-15T10:38:36;8.20;99.90
37432;DHT22;23292;51.300;6.252;2023-02-15T10:41:38;8.30;99.90
37432;DHT22;23292;51.300;6.252;2023-02-15T10:58:38;9.10;99.90
37432;DHT22;23292;51.300;6.252;2023-02-15T11:04:36;9.20;99.90
37432;DHT22;23292;51.300;6.252;2023-02-15T11:07:12;9.20;99.90
37432;DHT22;23292;51.300;6.252;2023-02-15T11:09:49;9.30;99.90
37432;DHT22;23292;51.300;6.252;2023-02-15T11:12:21;9.30;99.90
37432;DHT22;23292;51.300;6.252;2023-02-15T11:14:55;9.40;99.90
37432;DHT22;23292;51.300;6.252;2023-02-15T11:17:46;9.40;99.90
37432;DHT22;23292;51.300;6.252;2023-02-15T11:20:31;9.50;99.90
37432;DHT22;23292;51.300;6.252;2023-02-15T11:23:01;9.60;99.90
37432;DHT22;23292;51.300;6.252;2023-02-15T11:25:33;9.60;99.90
37432;DHT22;23292;51.300;6.252;2023-02-15T11:28:03;9.70;99.90
37432;DHT22;23292;51.300;6.252;2023-02-15T11:30:50;9.80;99.90
37432;DHT22;23292;51.300;6.252;2023-02-15T11:33:26;9.90;99.90
37432;DHT22;23292;51.300;6.252;2023-02-15T11:36:01;10.00;99.90
37432;DHT22;23292;51.300;6.252;2023-02-15T11:38:33;10.00;99.90
37432;DHT22;23292;51.300;6.252;2023-02-15T11:41:10;10.00;99.90
37432;DHT22;23292;51.300;6.252;2023-02-15T11:46:14;10.10;99.90
37432;DHT22;23292;51.300;6.252;2023-02-15T11:48:42;10.20;99.90
37432;DHT22;23292;51.300;6.252;2023-02-15T11:51:13;10.30;99.90
37432;DHT22;23292;51.300;6.252;2023-02-15T11:53:40;10.40;99.90
37432;DHT22;23292;51.300;6.252;2023-02-15T11:56:17;10.40;99.90
37432;DHT22;23292;51.300;6.252;2023-02-15T11:58:55;10.50;99.90
37432;DHT22;23292;51.300;6.252;2023-02-15T12:01:32;10.70;99.90
37432;DHT22;23292;51.300;6.252;2023-02-15T12:06:54;11.10;99.90
37432;DHT22;23292;51.300;6.252;2023-02-15T12:09:50;11.00;99.90
37432;DHT22;23292;51.300;6.252;2023-02-15T12:12:30;11.10;99.90
37432;DHT22;23292;51.300;6.252;2023-02-15T12:14:59;11.10;99.90
37432;DHT22;23292;51.300;6.252;2023-02-15T12:17:29;11.10;99.90
37432;DHT22;23292;51.300;6.252;2023-02-15T12:19:59;11.10;99.90
37432;DHT22;23292;51.300;6.252;2023-02-15T12:22:31;11.30;99.90
37432;DHT22;23292;51.300;6.252;2023-02-15T12:25:01;11.50;99.90
37432;DHT22;23292;51.300;6.252;2023-02-15T12:27:30;11.70;99.90
37432;DHT22;23292;51.300;6.252;2023-02-15T12:30:22;11.70;99.90
37432;DHT22;23292;51.300;6.252;2023-02-15T12:32:56;11.60;99.90
37432;DHT22;23292;51.300;6.252;2023-02-15T12:35:32;11.60;99.90
37432;DHT22;23292;51.300;6.252;2023-02-15T12:38:23;11.70;99.90
37432;DHT22;23292;51.300;6.252;2023-02-15T12:41:02;11.70;99.90
37432;DHT22;23292;51.300;6.252;2023-02-15T12:43:35;11.90;99.90
37432;DHT22;23292;51.300;6.252;2023-02-15T12:46:25;11.80;99.90
37432;DHT22;23292;51.300;6.252;2023-02-15T12:49:17;11.90;99.90
37432;DHT22;23292;51.300;6.252;2023-02-15T12:51:54;12.10;99.90
37432;DHT22;23292;51.300;6.252;2023-02-15T12:54:32;12.20;99.90
37432;DHT22;23292;51.300;6.252;2023-02-15T12:57:26;12.20;99.90
37432;DHT22;23292;51.300;6.252;2023-02-15T13:00:04;12.10;99.90
37432;DHT22;23292;51.300;6.252;2023-02-15T13:02:48;12.00;99.90
37432;DHT22;23292;51.300;6.252;2023-02-15T13:05:38;12.10;99.90
37432;DHT22;23292;51.300;6.252;2023-02-15T13:08:15;12.20;99.90
37432;DHT22;23292;51.300;6.252;2023-02-15T13:13:22;12.30;99.90
37432;DHT22;23292;51.300;6.252;2023-02-15T13:15:52;12.30;99.90
37432;DHT22;23292;51.300;6.252;2023-02-15T13:18:42;12.40;99.90
37432;DHT22;23292;51.300;6.252;2023-02-15T13:21:20;12.50;99.90
37432;DHT22;23292;51.300;6.252;2023-02-15T13:23:52;12.60;99.90
37432;DHT22;23292;51.300;6.252;2023-02-15T13:26:22;12.70;99.90
37432;DHT22;23292;51.300;6.252;2023-02-15T13:28:53;12.70;99.90
37432;DHT22;23292;51.300;6.252;2023-02-15T13:31:24;12.80;99.90
37432;DHT22;23292;51.300;6.252;2023-02-15T13:34:01;12.90;99.90
37432;DHT22;23292;51.300;6.252;2023-02-15T13:36:48;13.00;99.90
37432;DHT22;23292;51.300;6.252;2023-02-15T13:55:46;13.10;99.90
37432;DHT22;23292;51.300;6.252;2023-02-15T13:58:50;13.10;99.90
37432;DHT22;23292;51.300;6.252;2023-02-15T14:07:02;13.00;99.90
37432;DHT22;23292;51.300;6.252;2023-02-15T14:12:38;13.00;99.90
37432;DHT22;23292;51.300;6.252;2023-02-15T14:18:01;13.10;99.90
37432;DHT22;23292;51.300;6.252;2023-02-15T14:31:48;12.90;99.90
37432;DHT22;23292;51.300;6.252;2023-02-15T14:34:30;12.90;99.90
37432;DHT22;23292;51.300;6.252;2023-02-15T14:37:03;13.00;99.90
37432;DHT22;23292;51.300;6.252;2023-02-15T14:39:46;12.90;99.90
37432;DHT22;23292;51.300;6.252;2023-02-15T14:42:56;13.00;99.90
37432;DHT22;23292;51.300;6.252;2023-02-15T14:45:27;12.90;99.90
37432;DHT22;23292;51.300;6.252;2023-02-15T14:48:08;12.90;99.90
37432;DHT22;23292;51.300;6.252;2023-02-15T14:50:39;13.00;99.90
37432;DHT22;23292;51.300;6.252;2023-02-15T14:53:33;12.90;99.90
37432;DHT22;23292;51.300;6.252;2023-02-15T14:56:20;13.00;99.90
37432;DHT22;23292;51.300;6.252;2023-02-15T15:01:31;13.10;99.90
37432;DHT22;23292;51.300;6.252;2023-02-15T15:04:14;13.10;99.90
37432;DHT22;23292;51.300;6.252;2023-02-15T15:06:59;13.00;99.90
37432;DHT22;23292;51.300;6.252;2023-02-15T15:09:28;13.00;99.90
37432;DHT22;23292;51.300;6.252;2023-02-15T15:14:53;13.10;99.90
37432;DHT22;23292;51.300;6.252;2023-02-15T15:20:06;12.90;99.90
37432;DHT22;23292;51.300;6.252;2023-02-15T15:22:41;12.80;99.90
37432;DHT22;23292;51.300;6.252;2023-02-15T15:27:56;12.60;99.90
37432;DHT22;23292;51.300;6.252;2023-02-15T15:36:06;12.20;99.90
37432;DHT22;23292;51.300;6.252;2023-02-15T15:41:42;12.00;99.90
37432;DHT22;23292;51.300;6.252;2023-02-15T15:47:20;11.70;99.90
37432;DHT22;23292;51.300;6.252;2023-02-15T15:49:56;11.70;99.90
37432;DHT22;23292;51.300;6.252;2023-02-15T15:52:23;11.50;99.90
37432;DHT22;23292;51.300;6.252;2023-02-15T15:54:54;11.40;99.90
37432;DHT22;23292;51.300;6.252;2023-02-15T15:57:33;11.30;99.90
37432;DHT22;23292;51.300;6.252;2023-02-15T16:00:01;11.20;99.90
37432;DHT22;23292;51.300;6.252;2023-02-15T16:02:50;11.10;99.90
37432;DHT22;23292;51.300;6.252;2023-02-15T16:05:17;11.00;99.90
37432;DHT22;23292;51.300;6.252;2023-02-15T16:07:44;11.00;99.90
37432;DHT22;23292;51.300;6.252;2023-02-15T16:10:24;10.90;99.90
37432;DHT22;23292;51.300;6.252;2023-02-15T16:12:52;10.80;99.90
37432;DHT22;23292;51.300;6.252;2023-02-15T16:15:22;10.70;99.90
37432;DHT22;23292;51.300;6.252;2023-02-15T16:17:53;10.60;99.90
37432;DHT22;23292;51.300;6.252;2023-02-15T16:20:24;10.50;99.90
37432;DHT22;23292;51.300;6.252;2023-02-15T16:23:07;10.50;99.90
37432;DHT22;23292;51.300;6.252;2023-02-15T16:28:37;10.30;99.90
37432;DHT22;23292;51.300;6.252;2023-02-15T16:31:10;10.20;99.90
37432;DHT22;23292;51.300;6.252;2023-02-15T16:33:40;10.10;99.90
37432;DHT22;23292;51.300;6.252;2023-02-15T16:36:12;10.10;99.90
37432;DHT22;23292;51.300;6.252;2023-02-15T16:41:11;9.90;99.90
37432;DHT22;23292;51.300;6.252;2023-02-15T16:43:40;9.80;99.90
37432;DHT22;23292;51.300;6.252;2023-02-15T16:48:49;9.70;99.90
37432;DHT22;23292;51.300;6.252;2023-02-15T16:51:24;9.70;99.90
37432;DHT22;23292;51.300;6.252;2023-02-15T16:53:55;9.60;99.90
37432;DHT22;23292;51.300;6.252;2023-02-15T16:56:29;9.60;99.90
37432;DHT22;23292;51.300;6.252;2023-02-15T16:58:57;9.50;99.90
37432;DHT22;23292;51.300;6.252;2023-02-15T17:01:28;9.40;99.90
37432;DHT22;23292;51.300;6.252;2023-02-15T17:04:33;9.40;99.90
37432;DHT22;23292;51.300;6.252;2023-02-15T17:09:31;9.20;99.90
37432;DHT22;23292;51.300;6.252;2023-02-15T17:11:58;9.10;99.90
37432;DHT22;23292;51.300;6.252;2023-02-15T17:14:31;9.10;99.90
37432;DHT22;23292;51.300;6.252;2023-02-15T17:17:14;9.00;99.90
37432;DHT22;23292;51.300;6.252;2023-02-15T17:19:53;8.90;99.90
37432;DHT22;23292;51.300;6.252;2023-02-15T17:22:23;8.90;99.90
37432;DHT22;23292;51.300;6.252;2023-02-15T17:25:00;8.80;99.90
37432;DHT22;23292;51.300;6.252;2023-02-15T17:27:29;8.80;99.90
37432;DHT22;23292;51.300;6.252;2023-02-15T17:30:21;8.70;99.90
37432;DHT22;23292;51.300;6.252;2023-02-15T17:32:58;8.60;99.90
37432;DHT22;23292;51.300;6.252;2023-02-15T17:35:32;8.60;99.90
37432;DHT22;23292;51.300;6.252;2023-02-15T17:40:34;8.50;99.90
37432;DHT22;23292;51.300;6.252;2023-02-15T17:43:01;8.40;99.90
37432;DHT22;23292;51.300;6.252;2023-02-15T17:45:36;8.30;99.90
37432;DHT22;23292;51.300;6.252;2023-02-15T17:48:06;8.30;99.90
37432;DHT22;23292;51.300;6.252;2023-02-15T17:50:33;8.20;99.90
37432;DHT22;23292;51.300;6.252;2023-02-15T17:53:00;8.10;99.90
37432;DHT22;23292;51.300;6.252;2023-02-15T17:55:27;8.10;99.90
37432;DHT22;23292;51.300;6.252;2023-02-15T17:58:13;8.00;99.90
37432;DHT22;23292;51.300;6.252;2023-02-15T18:00:52;7.90;99.90
37432;DHT22;23292;51.300;6.252;2023-02-15T18:03:48;7.80;99.90
37432;DHT22;23292;51.300;6.252;2023-02-15T18:06:35;7.80;99.90
37432;DHT22;23292;51.300;6.252;2023-02-15T18:09:22;7.70;99.90
37432;DHT22;23292;51.300;6.252;2023-02-15T18:14:49;7.60;99.90
37432;DHT22;23292;51.300;6.252;2023-02-15T18:17:17;7.50;99.90
37432;DHT22;23292;51.300;6.252;2023-02-15T18:19:45;7.50;99.90
37432;DHT22;23292;51.300;6.252;2023-02-15T18:22:15;7.40;99.90
37432;DHT22;23292;51.300;6.252;2023-02-15T18:24:42;7.40;99.90
37432;DHT22;23292;51.300;6.252;2023-02-15T18:27:11;7.30;99.90
37432;DHT22;23292;51.300;6.252;2023-02-15T18:29:38;7.30;99.90
37432;DHT22;23292;51.300;6.252;2023-02-15T18:32:15;7.30;99.90
37432;DHT22;23292;51.300;6.252;2023-02-15T18:34:43;7.20;99.90
37432;DHT22;23292;51.300;6.252;2023-02-15T18:37:15;7.20;99.90
37432;DHT22;23292;51.300;6.252;2023-02-15T18:39:45;7.20;99.90
37432;DHT22;23292;51.300;6.252;2023-02-15T18:44:55;7.00;99.90
37432;DHT22;23292;51.300;6.252;2023-02-15T18:47:22;7.00;99.90
37432;DHT22;23292;51.300;6.252;2023-02-15T18:49:49;6.90;99.90
37432;DHT22;23292;51.300;6.252;2023-02-15T18:52:27;6.90;99.90
37432;DHT22;23292;51.300;6.252;2023-02-15T18:54:59;6.90;99.90
37432;DHT22;23292;51.300;6.252;2023-02-15T18:57:28;6.80;99.90